Time;durP1;ratioP1;P1;durP2;ratioP2;P2;SDS_P1;SDS_P2;PMS_P1;PMS_P2;Temp;Humidity;BMP_temperature;BMP_pressure;BME280_temperature;BME280_humidity;BME280_pressure;Samples;Min_cycle;Max_cycle;Signal;HPM_P1;HPM_P2
2023/07/08 00:00:51;;;;;;;14.93;5.63;;;;;;;16.66;78.47;101494.16;5030301;28;20111;-63
2023/07/08 00:03:19;;;;;;;8.75;4.55;;;;;;;16.59;76.37;101494.03;5030172;28;20462;-62
2023/07/08 00:05:47;;;;;;;9.68;4.88;;;;;;;16.58;77.40;101495.06;5030589;28;20053;-63
2023/07/08 00:08:15;;;;;;;8.00;4.75;;;;;;;16.50;79.44;101500.53;5030505;28;20046;-63
2023/07/08 00:10:42;;;;;;;11.13;4.88;;;;;;;16.50;79.13;101497.81;5030234;28;20045;-62
2023/07/08 00:13:10;;;;;;;14.48;4.50;;;;;;;16.47;79.75;101492.75;5030174;28;20046;-63
2023/07/08 00:15:37;;;;;;;11.50;4.75;;;;;;;16.45;81.23;101492.09;5030551;28;20045;-63
2023/07/08 00:18:15;;;;;;;10.63;4.35;;;;;;;16.39;78.86;101490.94;5030299;28;20045;-63
2023/07/08 00:20:47;;;;;;;6.35;4.00;;;;;;;16.46;80.18;101484.81;5029974;28;20419;-62
2023/07/08 00:23:14;;;;;;;7.80;4.20;;;;;;;16.42;82.08;101482.44;5030207;28;20072;-62
2023/07/08 00:25:41;;;;;;;7.68;4.03;;;;;;;16.38;79.50;101489.25;5030233;28;20045;-63
2023/07/08 00:28:09;;;;;;;7.93;4.60;;;;;;;16.35;78.97;101475.22;5030224;28;20464;-62
2023/07/08 00:30:36;;;;;;;6.90;4.05;;;;;;;16.31;78.54;101477.47;5030332;28;20049;-63
2023/07/08 00:33:02;;;;;;;8.13;4.32;;;;;;;16.32;78.25;101487.25;5030494;28;20045;-63
2023/07/08 00:35:42;;;;;;;8.68;4.22;;;;;;;16.25;79.22;101490.88;5030195;28;20042;-63
2023/07/08 00:38:28;;;;;;;7.60;4.20;;;;;;;16.24;79.57;101483.78;5031515;28;20046;-62
2023/07/08 00:41:07;;;;;;;8.82;4.50;;;;;;;16.14;80.75;101484.84;5034280;28;20049;-62
2023/07/08 00:43:46;;;;;;;14.13;4.68;;;;;;;16.08;81.80;101488.25;5034160;28;20057;-62
2023/07/08 00:46:31;;;;;;;7.03;4.15;;;;;;;16.01;82.87;101495.41;5034230;28;20099;-62
2023/07/08 00:49:06;;;;;;;10.32;4.07;;;;;;;15.99;83.54;101491.22;5031381;28;20045;-63
2023/07/08 00:51:38;;;;;;;12.68;4.97;;;;;;;15.97;84.56;101494.06;5033601;28;20045;-62
2023/07/08 00:54:16;;;;;;;8.15;4.32;;;;;;;15.95;83.96;101487.97;5033533;28;20045;-63
2023/07/08 00:56:46;;;;;;;5.90;3.75;;;;;;;15.91;84.19;101481.25;5032625;28;20080;-63
2023/07/08 00:59:20;;;;;;;11.65;4.18;;;;;;;15.82;85.16;101483.16;5032964;28;20042;-62
2023/07/08 01:01:48;;;;;;;5.65;3.88;;;;;;;15.79;85.68;101488.09;5033752;28;20049;-62
2023/07/08 01:04:19;;;;;;;10.00;4.10;;;;;;;15.76;86.20;101485.72;5033886;28;20127;-62
2023/07/08 01:07:24;;;;;;;6.60;3.95;;;;;;;15.70;86.64;101484.56;5033740;28;20045;-63
2023/07/08 01:09:58;;;;;;;7.68;3.85;;;;;;;15.65;86.81;101487.78;5033095;28;20409;-62
2023/07/08 01:12:30;;;;;;;7.00;4.18;;;;;;;15.70;86.47;101489.97;5033392;28;20054;-62
2023/07/08 01:15:00;;;;;;;7.40;4.03;;;;;;;15.64;86.99;101486.13;5031717;28;20485;-63
2023/07/08 01:17:32;;;;;;;8.65;3.83;;;;;;;15.63;86.77;101481.69;5032988;28;20567;-63
2023/07/08 01:20:11;;;;;;;6.82;3.80;;;;;;;15.63;86.21;101479.00;5033258;28;20426;-62
2023/07/08 01:22:38;;;;;;;9.90;3.90;;;;;;;15.74;86.88;101476.94;5033170;28;20041;-62
2023/07/08 01:25:07;;;;;;;10.30;3.53;;;;;;;15.73;86.20;101478.78;5033185;28;20099;-63
2023/07/08 01:27:38;;;;;;;8.30;3.72;;;;;;;15.78;85.91;101479.13;5033394;28;20053;-62
2023/07/08 01:30:06;;;;;;;6.05;3.72;;;;;;;15.73;90.91;101467.97;5033265;28;20084;-63
2023/07/08 01:32:36;;;;;;;10.25;4.18;;;;;;;15.78;91.08;101472.84;5032673;28;20041;-63
2023/07/08 01:35:03;;;;;;;10.63;3.70;;;;;;;15.64;86.10;101467.19;5032902;28;20051;-62
2023/07/08 01:37:35;;;;;;;7.95;3.70;;;;;;;15.61;86.82;101463.97;5032585;28;20052;-63
2023/07/08 01:40:37;;;;;;;6.50;3.67;;;;;;;15.58;88.02;101470.53;5031676;28;20045;-63
2023/07/08 01:43:05;;;;;;;5.45;3.90;;;;;;;15.53;87.28;101469.38;5011101;28;20052;-63
2023/07/08 01:45:39;;;;;;;11.13;3.88;;;;;;;15.51;87.51;101466.84;5033015;28;20501;-63
2023/07/08 01:48:09;;;;;;;6.60;3.73;;;;;;;15.48;87.94;101469.91;5032586;28;20061;-63
2023/07/08 01:50:40;;;;;;;7.32;4.03;;;;;;;15.42;88.71;101462.47;5032072;28;20284;-63
2023/07/08 01:53:14;;;;;;;6.80;3.30;;;;;;;15.39;89.05;101471.78;5032953;28;20041;-63
2023/07/08 01:55:40;;;;;;;10.02;3.22;;;;;;;15.35;88.70;101458.78;5032724;28;20072;-63
2023/07/08 01:58:07;;;;;;;9.07;3.47;;;;;;;15.36;88.67;101466.75;5032299;28;20057;-63
2023/07/08 02:00:33;;;;;;;5.40;3.47;;;;;;;15.32;89.74;101457.28;5032859;28;20065;-62
2023/07/08 02:03:00;;;;;;;10.63;3.72;;;;;;;15.32;90.52;101459.97;5032654;28;20049;-63
2023/07/08 02:05:26;;;;;;;4.53;3.53;;;;;;;15.28;91.45;101464.06;5032659;28;20045;-62
2023/07/08 02:07:53;;;;;;;6.78;3.63;;;;;;;15.22;94.37;101465.59;5032491;28;20413;-62
2023/07/08 02:10:19;;;;;;;9.52;3.95;;;;;;;15.13;96.62;101458.53;5032431;28;20100;-62
2023/07/08 02:12:46;;;;;;;15.10;3.97;;;;;;;15.10;98.09;101461.56;5032287;28;20049;-62
2023/07/08 02:15:13;;;;;;;8.35;4.25;;;;;;;15.17;98.06;101459.03;5032324;28;20103;-63
2023/07/08 02:17:39;;;;;;;10.65;4.18;;;;;;;15.12;98.87;101459.53;5032419;28;20096;-62
2023/07/08 02:20:08;;;;;;;5.82;3.95;;;;;;;15.20;100.00;101456.81;5031014;28;20049;-62
2023/07/08 02:22:36;;;;;;;10.13;3.25;;;;;;;15.19;100.00;101460.53;5032032;28;20053;-62
2023/07/08 02:25:03;;;;;;;6.80;3.50;;;;;;;15.13;100.00;101468.50;5032071;28;20439;-63
2023/07/08 02:27:30;;;;;;;8.63;3.90;;;;;;;15.10;100.00;101456.16;5032267;28;20390;-62
2023/07/08 02:29:56;;;;;;;7.05;3.47;;;;;;;15.11;100.00;101454.28;5032389;28;20061;-62
2023/07/08 02:32:23;;;;;;;8.65;4.05;;;;;;;15.10;100.00;101450.75;5031932;28;20410;-62
2023/07/08 02:34:51;;;;;;;11.07;4.55;;;;;;;15.08;100.00;101458.19;5032067;28;20482;-63
2023/07/08 02:37:18;;;;;;;9.70;4.05;;;;;;;15.10;100.00;101458.84;5031824;28;20417;-62
2023/07/08 02:39:45;;;;;;;7.28;3.70;;;;;;;15.09;100.00;101459.88;5031884;28;20613;-63
2023/07/08 02:42:11;;;;;;;11.38;3.67;;;;;;;15.03;100.00;101454.31;5031913;28;20045;-64
2023/07/08 02:44:38;;;;;;;10.52;3.80;;;;;;;15.01;100.00;101454.47;5031841;28;20048;-63
2023/07/08 02:47:04;;;;;;;6.88;3.80;;;;;;;14.99;100.00;101456.53;5031478;28;20080;-63
2023/07/08 02:49:31;;;;;;;9.50;4.22;;;;;;;14.96;100.00;101454.16;5031896;28;20464;-64
2023/07/08 02:51:57;;;;;;;10.77;3.92;;;;;;;14.98;100.00;101454.81;5032155;28;20045;-63
2023/07/08 02:54:24;;;;;;;6.40;3.95;;;;;;;15.00;100.00;101463.59;5031481;28;20478;-63
2023/07/08 02:56:50;;;;;;;6.57;3.88;;;;;;;14.93;100.00;101457.19;5031400;28;20041;-62
2023/07/08 02:59:17;;;;;;;12.63;3.72;;;;;;;14.97;100.00;101455.84;5031003;28;20076;-64
2023/07/08 03:01:46;;;;;;;14.20;4.32;;;;;;;14.87;100.00;101456.00;5030471;28;20053;-62
2023/07/08 03:04:13;;;;;;;8.00;3.85;;;;;;;14.87;100.00;101456.00;5031699;28;20068;-62
2023/07/08 03:06:42;;;;;;;9.13;4.15;;;;;;;14.84;100.00;101448.25;5031295;28;20041;-63
2023/07/08 03:09:10;;;;;;;9.88;4.00;;;;;;;14.82;100.00;101446.75;5031205;28;20099;-62
2023/07/08 03:11:36;;;;;;;10.63;4.07;;;;;;;14.85;100.00;101441.00;5031222;28;20072;-62
2023/07/08 03:14:03;;;;;;;7.65;3.53;;;;;;;14.87;100.00;101442.50;5031286;28;20079;-62
2023/07/08 03:16:30;;;;;;;9.15;3.95;;;;;;;14.86;100.00;101448.09;5031271;28;20083;-63
2023/07/08 03:18:56;;;;;;;12.43;3.38;;;;;;;14.90;100.00;101439.47;5031840;28;20045;-62
2023/07/08 03:21:23;;;;;;;10.60;3.45;;;;;;;14.95;100.00;101444.38;5030931;28;20050;-62
2023/07/08 03:23:51;;;;;;;7.32;3.40;;;;;;;14.92;100.00;101448.25;5031056;28;20123;-62
2023/07/08 03:26:21;;;;;;;9.90;3.55;;;;;;;14.92;100.00;101442.00;5031145;28;20045;-62
2023/07/08 03:28:48;;;;;;;6.80;3.63;;;;;;;14.86;100.00;101437.28;5031130;28;20053;-62
2023/07/08 03:31:15;;;;;;;7.30;3.47;;;;;;;14.90;100.00;101438.63;5030836;28;20045;-62
2023/07/08 03:33:42;;;;;;;4.78;3.60;;;;;;;14.97;100.00;101434.22;5031221;28;20041;-62
2023/07/08 03:36:13;;;;;;;6.47;3.85;;;;;;;14.97;100.00;101442.31;5030912;28;20050;-62
2023/07/08 03:38:39;;;;;;;7.57;4.00;;;;;;;15.02;100.00;101442.69;5030881;28;20045;-62
2023/07/08 03:41:07;;;;;;;10.80;3.88;;;;;;;15.05;100.00;101434.22;5030866;28;20465;-62
2023/07/08 03:44:07;;;;;;;7.97;4.35;;;;;;;15.07;100.00;101442.97;5030879;28;20045;-62
2023/07/08 03:46:33;;;;;;;7.13;3.53;;;;;;;15.07;100.00;101445.69;5028965;28;21237;-62
2023/07/08 03:49:00;;;;;;;9.10;3.97;;;;;;;15.12;100.00;101439.75;5028738;28;20051;-62
2023/07/08 03:51:36;;;;;;;8.48;4.07;;;;;;;15.06;100.00;101444.00;5029762;28;20167;-63
2023/07/08 03:54:03;;;;;;;9.27;4.03;;;;;;;15.09;100.00;101440.97;5029315;28;20091;-62
2023/07/08 03:56:30;;;;;;;9.15;3.42;;;;;;;15.00;100.00;101447.41;5028904;28;20056;-62
2023/07/08 03:58:57;;;;;;;7.70;3.78;;;;;;;15.04;100.00;101446.03;5029011;28;20049;-63
2023/07/08 04:01:25;;;;;;;6.13;3.88;;;;;;;15.17;99.65;101456.31;5029077;28;20079;-62
2023/07/08 04:03:53;;;;;;;11.98;4.15;;;;;;;15.17;100.00;101440.94;5029512;28;20167;-63
2023/07/08 04:06:20;;;;;;;7.10;3.40;;;;;;;15.19;97.07;101447.03;5029365;28;20042;-64
2023/07/08 04:08:47;;;;;;;10.48;3.92;;;;;;;15.09;98.90;101438.25;5029529;28;20053;-62
2023/07/08 04:11:16;;;;;;;11.90;3.75;;;;;;;15.13;97.40;101447.72;5029511;28;20460;-63
2023/07/08 04:13:43;;;;;;;7.45;3.55;;;;;;;15.22;97.34;101452.09;5033237;28;20091;-62
2023/07/08 04:16:17;;;;;;;9.63;3.58;;;;;;;15.37;93.71;101445.97;5035841;28;20050;-62
2023/07/08 04:18:46;;;;;;;7.97;3.80;;;;;;;15.34;93.61;101446.31;5035700;28;20053;-63
2023/07/08 04:21:14;;;;;;;10.20;3.70;;;;;;;15.44;92.31;101453.19;5035785;28;20103;-63
2023/07/08 04:23:44;;;;;;;10.10;2.97;;;;;;;15.55;94.33;101449.25;5034813;28;20046;-64
2023/07/08 04:26:11;;;;;;;4.70;3.40;;;;;;;15.64;92.83;101450.09;5035041;28;20052;-64
2023/07/08 04:28:38;;;;;;;9.63;3.70;;;;;;;15.64;94.27;101450.97;5035794;28;20489;-63
2023/07/08 04:31:04;;;;;;;6.38;3.40;;;;;;;15.53;91.19;101451.28;5055184;27;20049;-63
2023/07/08 04:33:31;;;;;;;8.40;3.63;;;;;;;15.51;92.25;101447.09;5056218;27;20098;-63
2023/07/08 04:35:57;;;;;;;5.55;3.42;;;;;;;15.53;93.10;101445.03;5055544;27;20425;-63
2023/07/08 04:38:26;;;;;;;7.00;3.60;;;;;;;15.56;94.41;101452.81;5055462;27;20083;-63
2023/07/08 04:40:53;;;;;;;7.18;3.03;;;;;;;15.78;91.92;101453.91;5055175;27;20095;-63
2023/07/08 04:43:21;;;;;;;12.48;3.80;;;;;;;15.76;92.47;101455.97;5055469;27;20051;-62
2023/07/08 04:45:51;;;;;;;9.40;3.00;;;;;;;15.89;93.53;101456.25;5055864;27;20052;-63
2023/07/08 04:48:21;;;;;;;10.10;3.53;;;;;;;15.91;92.73;101455.03;5054487;27;20116;-62
2023/07/08 04:50:49;;;;;;;8.40;3.60;;;;;;;15.99;97.15;101462.28;5055364;27;20107;-62
2023/07/08 04:53:16;;;;;;;9.63;3.38;;;;;;;16.00;91.64;101455.00;5055932;27;20048;-62
2023/07/08 04:56:01;;;;;;;5.32;3.35;;;;;;;16.01;90.33;101454.81;5055939;27;20497;-62
2023/07/08 04:58:27;;;;;;;12.93;3.55;;;;;;;16.01;92.39;101456.66;5055351;27;20489;-62
2023/07/08 05:00:54;;;;;;;9.52;3.28;;;;;;;16.12;93.34;101450.84;5053781;28;20464;-63
2023/07/08 05:03:20;;;;;;;10.25;3.53;;;;;;;16.15;92.00;101445.91;5054998;27;20481;-62
2023/07/08 05:05:47;;;;;;;8.95;3.70;;;;;;;16.24;91.95;101451.28;5054972;27;20075;-62
2023/07/08 05:08:13;;;;;;;5.97;3.20;;;;;;;16.28;91.63;101447.19;5054384;27;20170;-62
2023/07/08 05:10:40;;;;;;;7.78;3.70;;;;;;;16.35;92.12;101453.56;5035147;28;20119;-63
2023/07/08 05:13:07;;;;;;;11.27;3.45;;;;;;;16.34;90.05;101447.31;5035948;28;20053;-63
2023/07/08 05:15:33;;;;;;;5.80;3.28;;;;;;;16.50;90.44;101456.31;5035565;28;20460;-64
2023/07/08 05:18:00;;;;;;;10.52;3.47;;;;;;;16.43;91.50;101448.09;5034152;28;20053;-63
2023/07/08 05:20:26;;;;;;;7.82;3.53;;;;;;;16.39;95.19;101454.88;5035177;28;20472;-62
2023/07/08 05:22:53;;;;;;;6.65;3.80;;;;;;;16.39;96.53;101447.59;5035877;28;20045;-62
2023/07/08 05:25:20;;;;;;;8.68;3.90;;;;;;;16.41;98.20;101450.16;5031329;28;20468;-63
2023/07/08 05:27:47;;;;;;;6.65;3.63;;;;;;;16.36;96.27;101453.38;5032213;28;20460;-62
2023/07/08 05:30:17;;;;;;;9.77;3.20;;;;;;;16.46;94.60;101455.84;5032487;28;20041;-62
2023/07/08 05:32:44;;;;;;;5.07;3.40;;;;;;;16.50;97.98;101468.03;5031667;28;20054;-62
2023/07/08 05:35:11;;;;;;;9.35;3.65;;;;;;;16.57;98.98;101452.72;5032157;28;20045;-62
2023/07/08 05:37:39;;;;;;;8.50;3.67;;;;;;;16.64;90.39;101459.13;5032491;28;20517;-62
2023/07/08 05:40:08;;;;;;;8.93;3.58;;;;;;;16.68;88.75;101451.50;5032124;28;20048;-62
2023/07/08 05:42:35;;;;;;;5.15;3.00;;;;;;;16.82;90.48;101447.13;5052273;28;20045;-62
2023/07/08 05:45:02;;;;;;;4.97;2.83;;;;;;;16.93;91.64;101451.25;5050929;28;20052;-62
2023/07/08 05:47:29;;;;;;;6.13;3.38;;;;;;;16.98;90.50;101456.94;5051519;28;20049;-61
2023/07/08 05:49:55;;;;;;;7.50;3.45;;;;;;;17.04;88.06;101457.06;5051483;28;20574;-62
2023/07/08 05:52:22;;;;;;;12.38;3.60;;;;;;;17.07;88.61;101451.25;5051560;28;20094;-62
2023/07/08 05:54:48;;;;;;;12.63;3.85;;;;;;;17.10;90.81;101456.31;5051554;28;20139;-62
2023/07/08 05:57:15;;;;;;;6.35;3.53;;;;;;;17.16;91.22;101459.31;5051034;28;20044;-63
2023/07/08 05:59:43;;;;;;;9.55;3.92;;;;;;;17.19;89.89;101459.78;5051267;28;20056;-62
2023/07/08 06:02:12;;;;;;;5.72;3.47;;;;;;;17.30;87.44;101470.19;5052346;28;20048;-63
2023/07/08 06:04:40;;;;;;;5.15;3.17;;;;;;;17.34;89.24;101473.41;5050858;28;20098;-63
2023/07/08 06:07:06;;;;;;;8.75;3.45;;;;;;;17.48;90.33;101475.25;5051277;28;20153;-62
2023/07/08 06:09:33;;;;;;;8.13;3.58;;;;;;;17.56;88.68;101477.03;5051111;28;20130;-63
2023/07/08 06:12:00;;;;;;;7.43;3.63;;;;;;;17.55;87.88;101480.78;5050950;28;20100;-63
2023/07/08 06:14:28;;;;;;;6.47;3.35;;;;;;;17.60;87.01;101481.88;5050773;28;20048;-62
2023/07/08 06:16:57;;;;;;;6.57;3.92;;;;;;;17.69;88.80;101479.09;5050801;28;20497;-62
2023/07/08 06:19:23;;;;;;;7.22;3.85;;;;;;;17.71;88.90;101477.84;5051170;28;20466;-62
2023/07/08 06:21:50;;;;;;;5.22;3.05;;;;;;;17.73;85.15;101475.78;5051021;28;20493;-62
2023/07/08 06:24:16;;;;;;;8.77;3.75;;;;;;;17.83;81.92;101475.50;5051188;28;20088;-63
2023/07/08 06:26:43;;;;;;;7.40;4.03;;;;;;;17.85;80.74;101482.41;5050619;28;20076;-62
2023/07/08 06:29:09;;;;;;;5.32;3.38;;;;;;;17.93;80.86;101473.31;5051564;28;20098;-63
2023/07/08 06:31:36;;;;;;;5.65;3.28;;;;;;;18.12;80.31;101482.72;5051437;28;20102;-63
2023/07/08 06:34:04;;;;;;;6.90;3.67;;;;;;;18.24;80.03;101478.53;5049111;28;20048;-63
2023/07/08 06:36:31;;;;;;;5.85;3.47;;;;;;;18.33;76.93;101471.06;5051006;28;20079;-62
2023/07/08 06:38:57;;;;;;;8.00;3.50;;;;;;;18.46;71.15;101468.50;5050863;28;20052;-62
2023/07/08 06:41:24;;;;;;;7.60;3.45;;;;;;;18.52;73.27;101472.31;5050482;28;20045;-63
2023/07/08 06:43:51;;;;;;;7.78;3.20;;;;;;;18.64;69.25;101469.91;5050815;28;20049;-62
2023/07/08 06:46:18;;;;;;;8.68;3.33;;;;;;;18.80;69.85;101464.19;5050660;28;20041;-62
2023/07/08 06:48:45;;;;;;;9.43;3.25;;;;;;;18.90;67.89;101463.88;5050682;28;20049;-63
2023/07/08 06:51:12;;;;;;;8.95;3.53;;;;;;;19.04;64.70;101467.56;5050146;28;20049;-63
2023/07/08 06:53:39;;;;;;;14.68;6.30;;;;;;;19.14;66.39;101468.88;5050249;28;20492;-63
2023/07/08 06:56:05;;;;;;;6.53;3.20;;;;;;;19.31;67.25;101469.41;5050956;28;20041;-63
2023/07/08 06:58:32;;;;;;;8.60;3.25;;;;;;;19.35;63.73;101467.13;5050529;28;20118;-62
2023/07/08 07:00:58;;;;;;;6.57;3.20;;;;;;;19.39;61.64;101463.78;5050495;28;20053;-62
2023/07/08 07:03:25;;;;;;;7.55;2.75;;;;;;;19.46;60.91;101459.22;5050655;28;20057;-63
2023/07/08 07:05:52;;;;;;;5.15;3.15;;;;;;;19.75;60.62;101467.34;5049889;28;20049;-63
2023/07/08 07:08:19;;;;;;;5.00;2.70;;;;;;;19.79;61.32;101463.16;5050097;28;20053;-63
2023/07/08 07:10:45;;;;;;;8.40;2.95;;;;;;;19.95;62.17;101466.38;5049168;28;20049;-62
2023/07/08 07:13:12;;;;;;;8.63;3.40;;;;;;;20.02;63.21;101474.56;5050226;28;20068;-62
2023/07/08 07:15:38;;;;;;;5.97;3.40;;;;;;;20.28;64.81;101465.63;5052088;28;20055;-65
2023/07/08 07:18:05;;;;;;;9.98;3.50;;;;;;;20.41;63.62;101468.38;5050566;28;20063;-63
2023/07/08 07:20:36;;;;;;;7.78;3.42;;;;;;;20.60;60.69;101471.38;5049896;28;20049;-63
2023/07/08 07:23:03;;;;;;;5.93;3.10;;;;;;;21.00;60.36;101460.44;5049776;28;20099;-63
2023/07/08 07:25:30;;;;;;;8.95;3.15;;;;;;;21.18;56.31;101468.81;5050409;28;20053;-64
2023/07/08 07:27:57;;;;;;;6.18;3.20;;;;;;;21.12;56.62;101458.78;5049321;28;20424;-65
2023/07/08 07:30:23;;;;;;;8.23;3.30;;;;;;;21.82;53.72;101457.09;5050028;28;20041;-64
2023/07/08 07:32:50;;;;;;;9.23;3.75;;;;;;;22.04;52.73;101462.25;5049845;28;20095;-64
2023/07/08 07:35:17;;;;;;;8.63;3.70;;;;;;;22.11;51.63;101463.03;5049635;28;20076;-64
2023/07/08 07:37:44;;;;;;;9.15;3.20;;;;;;;22.24;51.20;101462.13;5050025;28;20057;-64
2023/07/08 07:40:13;;;;;;;10.60;3.13;;;;;;;22.82;50.38;101463.84;5049690;28;20152;-64
2023/07/08 07:42:42;;;;;;;7.35;3.10;;;;;;;22.98;48.83;101457.78;5049617;28;20056;-64
2023/07/08 07:45:09;;;;;;;6.28;3.00;;;;;;;23.63;47.99;101455.41;5050033;28;20463;-65
2023/07/08 07:47:36;;;;;;;7.97;3.17;;;;;;;24.11;46.60;101464.72;5049821;28;20464;-64
2023/07/08 07:50:07;;;;;;;6.82;3.05;;;;;;;24.43;44.88;101457.94;5049588;28;20056;-64
2023/07/08 07:52:34;;;;;;;;;;;;;;;24.37;44.61;101449.78;5050271;28;20063;-64
2023/07/08 07:55:02;;;;;;;8.65;3.22;;;;;;;24.35;43.75;101457.41;5049695;28;19940;-64
2023/07/08 07:57:29;;;;;;;6.60;3.10;;;;;;;23.85;44.82;101454.97;5049482;28;20136;-65
2023/07/08 07:59:56;;;;;;;5.22;2.83;;;;;;;23.62;43.62;101444.69;5049777;28;20501;-64
2023/07/08 08:02:22;;;;;;;7.13;3.10;;;;;;;24.17;44.56;101453.66;5049200;28;20358;-63
2023/07/08 08:04:49;;;;;;;7.72;3.03;;;;;;;24.64;43.41;101451.06;5049589;28;20049;-64
2023/07/08 08:07:16;;;;;;;6.80;2.60;;;;;;;24.74;43.20;101455.13;5049317;28;20045;-65
2023/07/08 08:09:42;;;;;;;6.05;2.70;;;;;;;24.92;42.06;101457.75;5049354;28;20450;-64
2023/07/08 08:12:11;;;;;;;6.38;2.83;;;;;;;24.55;41.04;101457.97;5050172;28;20485;-64
2023/07/08 08:14:38;;;;;;;9.65;3.28;;;;;;;24.37;41.70;101450.63;5049148;28;20049;-63
2023/07/08 08:17:05;;;;;;;7.82;2.90;;;;;;;24.01;42.44;101457.06;5049115;28;20161;-64
2023/07/08 08:19:32;;;;;;;6.25;3.00;;;;;;;24.75;42.00;101456.78;5049057;28;20190;-64
2023/07/08 08:21:59;;;;;;;8.65;2.78;;;;;;;24.58;42.37;101452.03;5049307;28;20056;-64
2023/07/08 08:24:25;;;;;;;7.63;2.72;;;;;;;25.03;42.49;101454.22;5049134;28;20311;-64
2023/07/08 08:26:54;;;;;;;6.38;3.08;;;;;;;25.19;39.19;101462.81;5048973;28;20094;-63
2023/07/08 08:29:20;;;;;;;4.60;2.83;;;;;;;25.07;38.98;101463.66;5049098;28;20045;-64
2023/07/08 08:31:47;;;;;;;5.95;2.90;;;;;;;25.34;37.48;101466.72;5048912;28;20065;-63
2023/07/08 08:34:13;;;;;;;9.32;2.78;;;;;;;25.87;37.96;101464.84;5049654;28;20425;-64
2023/07/08 08:36:40;;;;;;;7.70;2.95;;;;;;;25.76;38.67;101462.97;5048978;28;20041;-63
2023/07/08 08:39:07;;;;;;;5.78;2.70;;;;;;;26.06;38.79;101458.03;5049309;28;20098;-65
2023/07/08 08:41:35;;;;;;;5.40;2.67;;;;;;;25.44;38.62;101457.84;5047990;28;20045;-65
2023/07/08 08:44:04;;;;;;;9.73;3.22;;;;;;;25.49;38.51;101455.22;5049047;28;20045;-63
2023/07/08 08:47:10;;;;;;;5.78;2.80;;;;;;;25.54;36.20;101460.81;5048750;28;20087;-65
2023/07/08 08:49:49;;;;;;;6.95;2.22;;;;;;;25.83;35.93;101466.41;5048990;28;20061;-64
2023/07/08 08:52:15;;;;;;;7.07;2.60;;;;;;;26.24;33.87;101454.28;5048742;28;20378;-64
2023/07/08 08:54:43;;;;;;;8.65;2.65;;;;;;;26.30;35.16;101452.44;5048768;28;20509;-65
2023/07/08 08:57:35;;;;;;;4.65;2.67;;;;;;;26.30;35.51;101446.94;5049476;28;20049;-65
2023/07/08 09:00:03;;;;;;;4.63;2.80;;;;;;;27.00;33.97;101453.88;5049530;28;20072;-64
2023/07/08 09:02:29;;;;;;;4.60;2.40;;;;;;;26.53;32.04;101460.56;5051851;28;20087;-64
2023/07/08 09:05:09;;;;;;;15.60;2.53;;;;;;;27.00;32.89;101457.50;5052773;28;20055;-65
2023/07/08 09:07:40;;;;;;;11.30;3.05;;;;;;;28.28;31.84;101458.25;5052921;28;20451;-64
2023/07/08 09:10:39;;;;;;;3.90;2.05;;;;;;;26.90;30.36;101449.09;5053219;28;20085;-64
2023/07/08 09:13:11;;;;;;;5.53;2.20;;;;;;;27.80;30.08;101444.25;5029462;28;20075;-65
2023/07/08 09:15:38;;;;;;;5.68;2.58;;;;;;;27.02;30.70;101448.97;5053829;28;20041;-65
2023/07/08 09:18:27;;;;;;;7.68;2.60;;;;;;;28.17;30.35;101438.00;5053377;28;20413;-65
2023/07/08 09:20:57;;;;;;;4.13;2.47;;;;;;;29.67;28.47;101441.53;5053220;28;20048;-65
2023/07/08 09:23:29;;;;;;;9.70;2.53;;;;;;;29.59;28.91;101443.72;5053208;28;20045;-63
2023/07/08 09:26:07;;;;;;;5.15;2.47;;;;;;;29.91;28.95;101447.41;5053425;28;20114;-64
2023/07/08 09:28:43;;;;;;;7.45;2.00;;;;;;;28.76;28.57;101443.50;5053259;28;20041;-65
2023/07/08 09:31:25;;;;;;;11.55;2.22;;;;;;;30.16;27.43;101446.69;5053333;28;20047;-64
2023/07/08 09:34:11;;;;;;;3.97;2.20;;;;;;;31.51;25.91;101433.22;5053316;28;20107;-65
2023/07/08 09:36:43;;;;;;;13.40;2.55;;;;;;;29.68;27.17;101434.94;5051759;28;20045;-63
2023/07/08 09:39:12;;;;;;;4.95;2.40;;;;;;;29.10;27.95;101432.97;5052445;28;20045;-64
2023/07/08 09:41:41;;;;;;;5.07;2.05;;;;;;;29.10;27.55;101434.91;5051947;28;20049;-65
2023/07/08 09:44:23;;;;;;;7.22;2.40;;;;;;;30.20;26.06;101436.72;5051746;28;20041;-65
2023/07/08 09:46:49;;;;;;;4.32;2.25;;;;;;;31.49;25.20;101427.94;5052411;28;20044;-65
2023/07/08 09:49:20;;;;;;;4.03;2.25;;;;;;;31.42;24.08;101436.56;5053094;28;20114;-64
2023/07/08 09:51:48;;;;;;;3.70;2.10;;;;;;;30.19;24.91;101435.91;5052917;28;20056;-64
2023/07/08 09:54:20;;;;;;;4.85;2.50;;;;;;;29.60;26.08;101433.50;5052828;28;20086;-64
2023/07/08 09:57:04;;;;;;;5.07;2.55;;;;;;;30.60;25.73;101424.84;5052111;28;20076;-66
2023/07/08 09:59:37;;;;;;;3.08;2.35;;;;;;;32.02;23.89;101428.25;5051739;28;20118;-65
2023/07/08 10:02:27;;;;;;;5.65;2.08;;;;;;;31.80;23.62;101430.59;5052450;28;20124;-64
2023/07/08 10:05:00;;;;;;;3.85;2.35;;;;;;;29.40;26.51;101439.78;5052500;28;20067;-65
2023/07/08 10:07:31;;;;;;;4.85;2.47;;;;;;;29.43;26.61;101427.31;5052445;28;20045;-64
2023/07/08 10:10:02;;;;;;;3.00;2.05;;;;;;;30.76;25.65;101428.44;5052332;28;20111;-65
2023/07/08 10:12:30;;;;;;;4.50;1.98;;;;;;;30.60;25.56;101430.38;5052199;28;20049;-64
2023/07/08 10:15:04;;;;;;;7.32;2.10;;;;;;;31.72;24.56;101423.72;5052447;28;20385;-64
2023/07/08 10:17:30;;;;;;;5.45;2.40;;;;;;;32.47;23.22;101434.56;5051665;28;20052;-65
2023/07/08 10:19:57;;;;;;;2.25;2.00;;;;;;;32.67;23.11;101426.06;5050707;28;20064;-64
2023/07/08 10:22:49;;;;;;;5.57;2.17;;;;;;;33.81;22.25;101418.06;5052467;28;20079;-64
2023/07/08 10:25:27;;;;;;;4.38;1.80;;;;;;;31.91;23.46;101415.53;5051750;28;20064;-65
2023/07/08 10:28:03;;;;;;;4.53;2.08;;;;;;;32.47;23.04;101426.22;5052415;28;20048;-65
2023/07/08 10:30:40;;;;;;;4.72;2.03;;;;;;;32.74;23.09;101431.28;5051688;28;20045;-65
2023/07/08 10:34:03;;;;;;;2.78;2.15;;;;;;;31.94;23.42;101420.50;5051875;28;20059;-65
2023/07/08 10:37:02;;;;;;;4.63;2.15;;;;;;;33.08;23.06;101422.88;5009436;28;20097;-64
2023/07/08 10:39:50;;;;;;;7.28;2.30;;;;;;;34.68;21.32;101411.09;5008987;28;20064;-63
2023/07/08 10:42:45;;;;;;;6.82;2.28;;;;;;;35.21;20.56;101405.03;4993285;28;20068;-65
2023/07/08 10:45:17;;;;;;;6.38;2.00;;;;;;;34.88;20.75;101413.53;4997959;28;20047;-65
2023/07/08 10:48:09;;;;;;;2.88;1.75;;;;;;;33.79;20.94;101417.53;5001441;28;20108;-64
2023/07/08 10:51:04;;;;;;;4.30;2.25;;;;;;;33.58;20.89;101417.84;5001422;28;20042;-65
2023/07/08 10:53:44;;;;;;;5.43;2.13;;;;;;;34.35;21.00;101411.09;4979876;28;20148;-65
2023/07/08 10:56:20;;;;;;;3.35;1.92;;;;;;;34.23;21.05;101406.00;5009217;28;20042;-65
2023/07/08 10:59:01;;;;;;;6.20;2.20;;;;;;;31.60;22.73;101412.13;5008575;28;20050;-65
2023/07/08 11:01:43;;;;;;;3.25;2.05;;;;;;;30.75;23.60;101412.94;5009299;28;20374;-65
2023/07/08 11:04:39;;;;;;;2.70;1.88;;;;;;;30.44;24.87;101410.16;5009009;28;20133;-65
2023/07/08 11:07:22;;;;;;;4.75;2.17;;;;;;;31.49;23.57;101400.22;5021125;28;20049;-64
2023/07/08 11:09:58;;;;;;;3.95;2.17;;;;;;;31.84;23.47;101396.44;5031107;28;20049;-64
2023/07/08 11:12:42;;;;;;;3.13;2.20;;;;;;;32.19;23.34;101406.47;5030013;28;20065;-65
2023/07/08 11:15:25;;;;;;;4.38;2.50;;;;;;;32.15;22.92;101404.56;5030372;28;20080;-64
2023/07/08 11:17:57;;;;;;;4.65;2.42;;;;;;;31.76;23.21;101401.78;5030974;28;20053;-65
2023/07/08 11:20:51;;;;;;;6.75;2.42;;;;;;;31.85;23.60;101400.03;5030994;28;20049;-64
2023/07/08 11:23:40;;;;;;;2.78;2.30;;;;;;;30.32;23.26;101396.59;5029979;28;20099;-64
2023/07/08 11:26:23;;;;;;;4.75;2.38;;;;;;;29.78;24.39;101397.06;5031136;28;20045;-63
2023/07/08 11:29:30;;;;;;;6.82;2.30;;;;;;;29.02;24.77;101399.53;5031260;28;20099;-64
2023/07/08 11:31:57;;;;;;;6.10;2.13;;;;;;;29.11;24.97;101398.72;5029826;28;20128;-65
2023/07/08 11:34:25;;;;;;;3.58;2.53;;;;;;;28.80;25.36;101389.41;5029462;28;20098;-64
2023/07/08 11:36:52;;;;;;;5.95;2.53;;;;;;;28.87;25.59;101383.66;5029399;28;20087;-65
2023/07/08 11:39:42;;;;;;;11.25;7.43;;;;;;;29.00;25.46;101376.84;5029376;28;20170;-65